createdAt,value
2022-11-07T04:17:20.448Z,100.00
2022-11-07T04:20:30.481Z,100.00
2022-11-07T04:23:40.327Z,100.00
2022-11-07T04:27:01.178Z,100.00
2022-11-07T04:30:20.412Z,100.00
2022-11-07T04:33:31.604Z,100.00
2022-11-07T04:36:41.485Z,100.00
2022-11-07T04:39:51.330Z,100.00
2022-11-07T04:43:01.212Z,100.00
2022-11-07T04:46:11.063Z,100.00
2022-11-07T04:49:22.263Z,100.00
2022-11-07T04:52:32.138Z,100.00
2022-11-07T04:55:42.014Z,100.00
2022-11-07T04:58:51.870Z,100.00
2022-11-07T05:02:02.407Z,100.00
2022-11-07T05:05:14.325Z,100.00
2022-11-07T05:08:24.179Z,100.00
2022-11-07T05:11:34.039Z,100.00
2022-11-07T05:14:43.895Z,100.00
2022-11-07T05:17:53.759Z,100.00
2022-11-07T05:21:05.035Z,100.00
2022-11-07T05:24:15.262Z,100.00
2022-11-07T05:27:25.824Z,100.00
2022-11-07T05:30:39.440Z,100.00
2022-11-07T05:33:49.318Z,100.00
2022-11-07T05:37:00.456Z,100.00
2022-11-07T05:40:11.038Z,100.00
2022-11-07T05:43:20.891Z,100.00
2022-11-07T05:46:31.020Z,100.00
2022-11-07T05:49:40.867Z,100.00
2022-11-07T05:52:52.227Z,100.00
2022-11-07T05:56:02.394Z,100.00
2022-11-07T05:59:12.858Z,100.00
2022-11-07T08:47:29.430Z,100.00
2022-11-07T08:50:39.379Z,100.00
2022-11-07T08:53:49.213Z,100.00
2022-11-07T08:56:59.042Z,100.00
2022-11-07T09:00:09.869Z,100.00
2022-11-07T09:03:44.160Z,95.62
2022-11-07T09:06:54.396Z,95.30
2022-11-07T09:10:04.612Z,95.56
2022-11-07T09:13:15.630Z,97.50
2022-11-07T09:16:25.975Z,96.52
2022-11-07T09:19:37.174Z,96.44
2022-11-07T09:22:47.307Z,95.60
2022-11-07T09:26:00.621Z,95.76
2022-11-07T09:29:10.477Z,95.13
2022-11-07T09:32:43.479Z,94.76
2022-11-07T09:35:51.618Z,94.28
2022-11-07T09:39:01.534Z,92.82
2022-11-07T09:42:22.426Z,92.66
2022-11-07T09:45:36.467Z,92.51
2022-11-07T09:48:52.371Z,92.09
2022-11-07T09:52:13.501Z,95.11
2022-11-07T09:55:28.015Z,97.99
2022-11-07T09:58:41.343Z,97.38
2022-11-07T10:01:51.434Z,95.63
2022-11-07T10:05:04.838Z,94.21
2022-11-07T10:08:25.188Z,92.47
2022-11-07T10:11:38.324Z,93.44
2022-11-07T10:14:59.303Z,90.35
2022-11-07T10:18:21.952Z,89.00
2022-11-07T10:21:41.315Z,87.63
2022-11-07T10:25:06.199Z,87.67
2022-11-07T10:28:18.037Z,85.54
2022-11-07T10:31:32.860Z,83.77
2022-11-07T10:34:53.107Z,82.95
2022-11-07T10:38:18.469Z,81.31
2022-11-07T10:41:31.276Z,78.56
2022-11-07T10:44:43.454Z,80.12
2022-11-07T10:47:58.411Z,79.14
2022-11-07T10:51:08.288Z,80.59
2022-11-07T10:54:22.361Z,81.21
2022-11-07T10:57:35.355Z,80.06
2022-11-07T11:00:45.969Z,80.72
2022-11-07T11:03:55.874Z,81.70
2022-11-07T11:07:11.336Z,80.37
2022-11-07T11:10:29.200Z,79.26
2022-11-07T11:13:40.361Z,79.33
2022-11-07T11:16:54.465Z,78.05
2022-11-07T11:20:05.978Z,77.61
2022-11-07T11:23:21.268Z,77.62
2022-11-07T11:26:34.591Z,75.49
2022-11-07T11:29:51.717Z,75.75
2022-11-07T11:33:07.894Z,73.71
2022-11-07T11:36:20.829Z,73.08
2022-11-07T11:39:38.300Z,71.84
2022-11-07T11:42:52.561Z,72.27
2022-11-07T11:46:12.370Z,72.93
2022-11-07T11:49:26.333Z,72.31
2022-11-07T11:52:36.482Z,72.91
2022-11-07T11:55:55.291Z,72.83
2022-11-07T11:59:25.074Z,74.34
2022-11-07T12:02:47.717Z,74.03
2022-11-07T12:06:12.905Z,75.35
2022-11-07T12:09:34.055Z,74.67
2022-11-07T12:13:03.726Z,73.65
2022-11-07T12:16:23.718Z,74.33
2022-11-07T12:19:44.204Z,76.04
2022-11-07T12:23:11.372Z,75.07
2022-11-07T12:26:27.856Z,74.40
2022-11-07T12:29:56.141Z,74.08
2022-11-07T12:33:16.053Z,73.73
2022-11-07T12:36:40.731Z,74.32
2022-11-07T12:40:04.577Z,74.86
2022-11-07T12:43:30.851Z,75.41
2022-11-07T12:46:50.127Z,73.84
2022-11-07T12:50:12.484Z,75.84
2022-11-07T12:53:36.396Z,75.13
2022-11-07T12:56:47.625Z,74.97
2022-11-07T13:00:03.197Z,75.07
2022-11-07T13:03:31.461Z,75.72
2022-11-07T13:06:45.054Z,75.06
2022-11-07T13:10:03.550Z,75.83
2022-11-07T13:13:22.113Z,76.19
2022-11-07T13:16:35.473Z,76.90
2022-11-07T13:19:47.826Z,77.48
2022-11-07T13:23:02.366Z,76.42
2022-11-07T13:26:45.312Z,75.87
2022-11-07T13:29:45.206Z,76.80
2022-11-07T13:32:55.080Z,77.30
2022-11-07T13:36:15.390Z,77.16
2022-11-07T13:39:26.580Z,77.80
2022-11-07T13:42:38.195Z,78.44
2022-11-07T13:45:51.435Z,78.95
2022-11-07T13:49:03.906Z,78.20
2022-11-07T13:52:21.398Z,80.27
2022-11-07T13:55:47.227Z,79.51
2022-11-07T13:59:01.183Z,79.42
2022-11-07T14:02:20.424Z,78.88
2022-11-07T14:05:34.828Z,80.32
2022-11-07T14:08:46.972Z,79.70
2022-11-07T14:11:58.339Z,79.93
2022-11-07T14:15:16.495Z,80.27
2022-11-07T14:18:29.937Z,80.37
2022-11-07T14:21:39.840Z,81.59
2022-11-07T14:24:52.563Z,82.51
2022-11-07T14:28:02.984Z,83.60
2022-11-07T14:31:20.352Z,84.63
2022-11-07T14:34:30.333Z,85.35
2022-11-07T14:37:40.335Z,86.17
2022-11-07T14:40:51.244Z,86.73
2022-11-07T14:44:04.680Z,87.07
2022-11-07T14:47:21.035Z,88.15
2022-11-07T14:50:31.195Z,87.40
2022-11-07T14:53:49.950Z,88.02
2022-11-07T14:57:00.706Z,88.71
2022-11-07T15:00:16.046Z,89.88
2022-11-07T15:03:34.057Z,90.14
2022-11-07T15:06:45.354Z,90.56
2022-11-07T15:09:57.254Z,91.29
2022-11-07T15:13:24.400Z,94.50
2022-11-07T15:16:38.876Z,96.10
2022-11-07T15:19:57.905Z,96.73
2022-11-07T15:23:23.362Z,96.04
2022-11-07T15:26:35.124Z,97.17
2022-11-07T15:29:52.404Z,97.36
2022-11-07T15:33:02.316Z,97.29
2022-11-07T15:36:16.006Z,98.41
2022-11-07T15:39:26.395Z,98.74
2022-11-07T15:42:36.242Z,100.00
2022-11-07T15:45:47.503Z,100.00
2022-11-07T15:48:58.175Z,100.00
2022-11-07T15:52:11.021Z,100.00
2022-11-07T15:55:22.276Z,100.00
2022-11-07T15:58:32.273Z,100.00
2022-11-07T16:01:42.493Z,100.00
2022-11-07T16:04:52.444Z,100.00
2022-11-07T16:08:03.851Z,100.00
2022-11-07T16:11:13.775Z,100.00
2022-11-07T16:14:43.525Z,100.00
2022-11-07T16:17:53.454Z,100.00
2022-11-07T16:21:03.297Z,100.00
2022-11-07T16:24:16.475Z,100.00
2022-11-07T16:27:26.352Z,100.00
2022-11-07T16:30:36.414Z,100.00
2022-11-07T16:33:46.337Z,100.00
2022-11-07T16:36:56.233Z,100.00
2022-11-07T16:40:09.765Z,100.00
2022-11-07T16:43:19.873Z,100.00
2022-11-07T16:46:35.304Z,100.00
2022-11-07T16:49:45.163Z,100.00
2022-11-07T16:52:55.038Z,100.00
2022-11-07T16:56:06.822Z,100.00
2022-11-07T16:59:19.654Z,100.00
2022-11-07T17:02:29.703Z,100.00
2022-11-07T17:05:39.750Z,100.00
2022-11-07T17:08:49.671Z,100.00
2022-11-07T17:12:00.812Z,100.00
2022-11-07T17:15:11.261Z,100.00
2022-11-07T17:18:21.936Z,100.00
2022-11-07T17:21:33.496Z,100.00
2022-11-07T17:24:45.082Z,100.00
2022-11-07T17:27:56.272Z,100.00
2022-11-07T17:31:06.284Z,100.00
2022-11-07T17:34:16.181Z,100.00
2022-11-07T17:37:26.172Z,100.00
2022-11-07T17:40:36.381Z,100.00
2022-11-07T17:43:48.840Z,100.00
2022-11-07T17:47:01.874Z,100.00
2022-11-07T17:50:15.770Z,100.00
2022-11-07T17:53:25.664Z,100.00
2022-11-07T17:56:35.771Z,100.00
2022-11-07T17:59:46.959Z,100.00
2022-11-07T18:02:57.016Z,100.00
2022-11-07T18:06:07.183Z,100.00
2022-11-07T18:09:17.303Z,100.00
2022-11-07T18:12:27.196Z,100.00
2022-11-07T18:15:39.746Z,100.00
2022-11-07T18:18:49.606Z,100.00
2022-11-07T18:21:59.554Z,100.00
2022-11-07T18:25:10.090Z,100.00
2022-11-07T18:28:20.077Z,100.00
2022-11-07T18:31:31.391Z,100.00
2022-11-07T18:34:41.265Z,100.00
2022-11-07T18:37:51.618Z,100.00
2022-11-07T18:41:03.637Z,100.00
2022-11-07T18:44:13.873Z,100.00
2022-11-07T18:47:25.184Z,100.00
2022-11-07T18:50:36.877Z,100.00
2022-11-07T18:53:46.786Z,100.00
2022-11-07T18:56:56.692Z,100.00
2022-11-07T19:00:13.079Z,100.00
2022-11-07T19:03:24.989Z,100.00
2022-11-07T19:06:35.802Z,100.00
2022-11-07T19:09:45.751Z,100.00
2022-11-07T19:12:55.887Z,100.00
2022-11-07T19:16:09.437Z,100.00
2022-11-07T19:19:20.853Z,100.00
2022-11-07T19:22:31.691Z,100.00
2022-11-07T19:25:41.770Z,100.00
2022-11-07T19:28:53.890Z,100.00
2022-11-07T19:32:03.815Z,100.00
2022-11-07T19:35:16.123Z,100.00
2022-11-07T19:38:26.299Z,100.00
2022-11-07T19:41:36.152Z,100.00
2022-11-07T19:44:50.451Z,100.00
2022-11-07T19:48:02.698Z,100.00
2022-11-07T19:51:21.311Z,100.00
2022-11-07T19:54:31.753Z,100.00
2022-11-07T19:57:41.632Z,100.00
2022-11-07T20:00:51.579Z,100.00
2022-11-07T20:04:02.562Z,100.00
2022-11-07T20:07:13.987Z,100.00
2022-11-07T20:10:24.669Z,100.00
2022-11-07T20:13:34.765Z,100.00
2022-11-07T20:16:44.687Z,100.00
2022-11-07T20:19:54.582Z,100.00
2022-11-07T20:23:05.764Z,100.00
2022-11-07T20:26:17.992Z,100.00
2022-11-07T20:29:27.852Z,100.00
2022-11-07T20:32:37.863Z,100.00
2022-11-07T20:35:48.027Z,100.00
2022-11-07T20:39:00.120Z,100.00
2022-11-07T20:42:10.000Z,100.00
2022-11-07T20:45:19.885Z,100.00
2022-11-07T20:48:29.814Z,100.00
2022-11-07T20:51:40.505Z,100.00
2022-11-07T20:54:51.678Z,100.00
2022-11-07T20:58:03.590Z,100.00
2022-11-07T21:01:15.935Z,100.00
2022-11-07T21:04:27.279Z,100.00
2022-11-07T21:07:37.143Z,100.00
2022-11-07T21:10:50.396Z,100.00
